KBMG/BMG METAR and TAF weather

Enter ICAO airport designator
Station Type Date Time Source
KBMG METAR 2018/10/16 20:53 UTC NOAA

KBMG 162053Z 20009KT 10SM CLR 11/02 A3017 RMK AO2 SLP221 T01060022 56020


Station Type Date Time Source
KBMG Decoded METAR 2018/10/16 20:53 UTC NOAA

MONROE COUNTY AIRPORT, IN, United States (KBMG) 39-09N 086-37W 257M
Oct 16, 2018 - 04:53 PM EDT / 2018.10.16 2053 UTC
Wind: from the SSW (200 degrees) at 10 MPH (9 KT):0
Visibility: 10 mile(s):0
Sky conditions: clear
Temperature: 51.1 F (10.6 C)
Dew Point: 36.0 F (2.2 C)
Relative Humidity: 56%
Pressure (altimeter): 30.17 in. Hg (1021 hPa)
Pressure tendency: 0.06 inches (2.0 hPa) lower than three hours ago
ob: KBMG 162053Z 20009KT 10SM CLR 11/02 A3017 RMK AO2 SLP221 T01060022 56020
cycle: 21

Station Type Date Time Source
KBMG TAF 2018/10/16 18:22 UTC NOAA

TAF KBMG 161720Z 1618/1718 23008KT P6SM FEW250
FM171300 29006KT P6SM SKC
FM171500 32008KT P6SM SKC


Example: see airport list